sensor_id;sensor_type;location;lat;lon;timestamp;P1;durP1;ratioP1;P2;durP2;ratioP2
68718;SDS011;55696;52.138;5.444;2022-12-07T00:01:31;14.27;;;4.78;;
68718;SDS011;55696;52.138;5.444;2022-12-07T00:04:00;10.90;;;3.97;;
68718;SDS011;55696;52.138;5.444;2022-12-07T00:06:32;6.68;;;3.13;;
68718;SDS011;55696;52.138;5.444;2022-12-07T00:09:01;17.67;;;6.18;;
68718;SDS011;55696;52.138;5.444;2022-12-07T00:11:29;10.97;;;3.20;;
68718;SDS011;55696;52.138;5.444;2022-12-07T00:13:56;9.35;;;3.63;;
68718;SDS011;55696;52.138;5.444;2022-12-07T00:16:25;9.95;;;3.88;;
68718;SDS011;55696;52.138;5.444;2022-12-07T00:18:54;8.68;;;3.75;;
68718;SDS011;55696;52.138;5.444;2022-12-07T00:21:22;7.85;;;3.88;;
68718;SDS011;55696;52.138;5.444;2022-12-07T00:23:57;11.50;;;3.83;;
68718;SDS011;55696;52.138;5.444;2022-12-07T00:26:26;20.10;;;5.15;;
68718;SDS011;55696;52.138;5.444;2022-12-07T00:29:00;21.13;;;6.05;;
68718;SDS011;55696;52.138;5.444;2022-12-07T00:31:31;9.25;;;3.47;;
68718;SDS011;55696;52.138;5.444;2022-12-07T00:34:01;12.40;;;3.88;;
68718;SDS011;55696;52.138;5.444;2022-12-07T00:36:28;11.47;;;3.50;;
68718;SDS011;55696;52.138;5.444;2022-12-07T00:38:54;16.08;;;4.55;;
68718;SDS011;55696;52.138;5.444;2022-12-07T00:41:25;15.10;;;5.47;;
68718;SDS011;55696;52.138;5.444;2022-12-07T00:43:55;10.23;;;3.05;;
68718;SDS011;55696;52.138;5.444;2022-12-07T00:46:23;16.10;;;5.38;;
68718;SDS011;55696;52.138;5.444;2022-12-07T00:48:51;12.57;;;4.77;;
68718;SDS011;55696;52.138;5.444;2022-12-07T00:51:19;9.68;;;3.83;;
68718;SDS011;55696;52.138;5.444;2022-12-07T00:53:48;10.98;;;4.68;;
68718;SDS011;55696;52.138;5.444;2022-12-07T00:56:16;14.38;;;4.65;;
68718;SDS011;55696;52.138;5.444;2022-12-07T00:58:49;14.75;;;3.92;;
68718;SDS011;55696;52.138;5.444;2022-12-07T01:01:20;11.00;;;3.40;;
68718;SDS011;55696;52.138;5.444;2022-12-07T01:03:47;12.80;;;4.78;;
68718;SDS011;55696;52.138;5.444;2022-12-07T01:06:14;8.00;;;2.60;;
68718;SDS011;55696;52.138;5.444;2022-12-07T01:08:42;8.38;;;2.90;;
68718;SDS011;55696;52.138;5.444;2022-12-07T01:11:11;6.65;;;2.90;;
68718;SDS011;55696;52.138;5.444;2022-12-07T01:13:40;8.27;;;3.20;;
68718;SDS011;55696;52.138;5.444;2022-12-07T01:16:08;9.70;;;3.15;;
68718;SDS011;55696;52.138;5.444;2022-12-07T01:18:37;9.48;;;2.60;;
68718;SDS011;55696;52.138;5.444;2022-12-07T01:21:05;12.32;;;2.83;;
68718;SDS011;55696;52.138;5.444;2022-12-07T01:23:34;13.18;;;2.83;;
68718;SDS011;55696;52.138;5.444;2022-12-07T01:26:02;7.37;;;3.47;;
68718;SDS011;55696;52.138;5.444;2022-12-07T01:28:30;9.40;;;2.70;;
68718;SDS011;55696;52.138;5.444;2022-12-07T01:30:58;8.52;;;2.40;;
68718;SDS011;55696;52.138;5.444;2022-12-07T01:33:38;7.97;;;2.05;;
68718;SDS011;55696;52.138;5.444;2022-12-07T01:36:06;7.65;;;2.38;;
68718;SDS011;55696;52.138;5.444;2022-12-07T01:38:44;10.80;;;2.40;;
68718;SDS011;55696;52.138;5.444;2022-12-07T01:41:12;5.45;;;1.80;;
68718;SDS011;55696;52.138;5.444;2022-12-07T01:47:09;5.35;;;1.70;;
68718;SDS011;55696;52.138;5.444;2022-12-07T01:52:10;7.20;;;1.83;;
68718;SDS011;55696;52.138;5.444;2022-12-07T01:54:54;7.75;;;2.20;;
68718;SDS011;55696;52.138;5.444;2022-12-07T01:57:30;8.35;;;1.98;;
68718;SDS011;55696;52.138;5.444;2022-12-07T01:59:59;10.93;;;2.28;;
68718;SDS011;55696;52.138;5.444;2022-12-07T02:02:39;7.55;;;1.95;;
68718;SDS011;55696;52.138;5.444;2022-12-07T02:05:16;3.47;;;1.70;;
68718;SDS011;55696;52.138;5.444;2022-12-07T02:07:43;7.97;;;1.80;;
68718;SDS011;55696;52.138;5.444;2022-12-07T02:10:16;6.22;;;1.88;;
68718;SDS011;55696;52.138;5.444;2022-12-07T02:12:46;7.15;;;1.70;;
68718;SDS011;55696;52.138;5.444;2022-12-07T02:15:18;6.68;;;2.25;;
68718;SDS011;55696;52.138;5.444;2022-12-07T02:17:49;5.20;;;1.63;;
68718;SDS011;55696;52.138;5.444;2022-12-07T02:20:21;7.30;;;1.75;;
68718;SDS011;55696;52.138;5.444;2022-12-07T02:28:37;9.23;;;1.83;;
68718;SDS011;55696;52.138;5.444;2022-12-07T02:31:27;6.60;;;1.50;;
68718;SDS011;55696;52.138;5.444;2022-12-07T02:34:32;11.15;;;1.83;;
68718;SDS011;55696;52.138;5.444;2022-12-07T02:37:00;7.90;;;2.78;;
68718;SDS011;55696;52.138;5.444;2022-12-07T02:39:40;4.75;;;1.75;;
68718;SDS011;55696;52.138;5.444;2022-12-07T02:42:14;7.47;;;1.70;;
68718;SDS011;55696;52.138;5.444;2022-12-07T02:44:44;8.37;;;2.03;;
68718;SDS011;55696;52.138;5.444;2022-12-07T02:47:13;8.48;;;2.13;;
68718;SDS011;55696;52.138;5.444;2022-12-07T02:49:42;6.35;;;1.92;;
68718;SDS011;55696;52.138;5.444;2022-12-07T02:52:09;6.97;;;1.90;;
68718;SDS011;55696;52.138;5.444;2022-12-07T02:54:36;9.55;;;1.77;;
68718;SDS011;55696;52.138;5.444;2022-12-07T02:59:48;13.23;;;2.03;;
68718;SDS011;55696;52.138;5.444;2022-12-07T03:02:53;5.07;;;2.00;;
68718;SDS011;55696;52.138;5.444;2022-12-07T03:08:13;7.03;;;1.77;;
68718;SDS011;55696;52.138;5.444;2022-12-07T03:10:58;7.37;;;1.90;;
68718;SDS011;55696;52.138;5.444;2022-12-07T03:13:41;6.32;;;1.73;;
68718;SDS011;55696;52.138;5.444;2022-12-07T03:16:21;5.82;;;1.88;;
68718;SDS011;55696;52.138;5.444;2022-12-07T03:18:57;7.47;;;1.63;;
68718;SDS011;55696;52.138;5.444;2022-12-07T03:21:33;5.95;;;1.60;;
68718;SDS011;55696;52.138;5.444;2022-12-07T03:24:07;6.40;;;1.50;;
68718;SDS011;55696;52.138;5.444;2022-12-07T03:26:38;5.32;;;1.25;;
68718;SDS011;55696;52.138;5.444;2022-12-07T03:29:19;3.80;;;1.33;;
68718;SDS011;55696;52.138;5.444;2022-12-07T03:31:53;6.07;;;1.70;;
68718;SDS011;55696;52.138;5.444;2022-12-07T03:34:27;9.65;;;1.60;;
68718;SDS011;55696;52.138;5.444;2022-12-07T03:37:12;13.40;;;1.60;;
68718;SDS011;55696;52.138;5.444;2022-12-07T03:42:34;4.55;;;1.80;;
68718;SDS011;55696;52.138;5.444;2022-12-07T03:45:01;4.80;;;1.65;;
68718;SDS011;55696;52.138;5.444;2022-12-07T03:47:43;6.13;;;1.73;;
68718;SDS011;55696;52.138;5.444;2022-12-07T03:50:27;5.17;;;1.30;;
68718;SDS011;55696;52.138;5.444;2022-12-07T03:53:15;6.32;;;1.40;;
68718;SDS011;55696;52.138;5.444;2022-12-07T03:55:47;9.50;;;1.75;;
68718;SDS011;55696;52.138;5.444;2022-12-07T03:58:16;7.45;;;1.42;;
68718;SDS011;55696;52.138;5.444;2022-12-07T04:00:46;7.18;;;1.88;;
68718;SDS011;55696;52.138;5.444;2022-12-07T04:03:14;6.50;;;1.40;;
68718;SDS011;55696;52.138;5.444;2022-12-07T04:05:41;5.72;;;1.30;;
68718;SDS011;55696;52.138;5.444;2022-12-07T04:08:09;7.72;;;1.40;;
68718;SDS011;55696;52.138;5.444;2022-12-07T04:10:36;10.60;;;1.70;;
68718;SDS011;55696;52.138;5.444;2022-12-07T04:13:03;7.70;;;1.50;;
68718;SDS011;55696;52.138;5.444;2022-12-07T04:15:30;5.70;;;1.40;;
68718;SDS011;55696;52.138;5.444;2022-12-07T04:17:56;6.32;;;1.30;;
68718;SDS011;55696;52.138;5.444;2022-12-07T04:20:23;6.63;;;1.25;;
68718;SDS011;55696;52.138;5.444;2022-12-07T04:22:50;5.95;;;1.20;;
68718;SDS011;55696;52.138;5.444;2022-12-07T04:25:17;5.95;;;1.50;;
68718;SDS011;55696;52.138;5.444;2022-12-07T04:27:43;9.47;;;1.47;;
68718;SDS011;55696;52.138;5.444;2022-12-07T04:30:10;5.32;;;1.30;;
68718;SDS011;55696;52.138;5.444;2022-12-07T04:32:37;8.68;;;1.40;;
68718;SDS011;55696;52.138;5.444;2022-12-07T04:35:04;2.30;;;0.90;;
68718;SDS011;55696;52.138;5.444;2022-12-07T04:37:31;6.95;;;1.40;;
68718;SDS011;55696;52.138;5.444;2022-12-07T04:39:58;6.10;;;0.90;;
68718;SDS011;55696;52.138;5.444;2022-12-07T04:42:27;5.10;;;1.42;;
68718;SDS011;55696;52.138;5.444;2022-12-07T04:44:54;8.40;;;1.60;;
68718;SDS011;55696;52.138;5.444;2022-12-07T04:47:21;3.55;;;1.25;;
68718;SDS011;55696;52.138;5.444;2022-12-07T04:49:47;3.92;;;1.50;;
68718;SDS011;55696;52.138;5.444;2022-12-07T04:52:14;6.47;;;1.10;;
68718;SDS011;55696;52.138;5.444;2022-12-07T04:54:41;6.95;;;1.42;;
68718;SDS011;55696;52.138;5.444;2022-12-07T04:57:08;3.47;;;1.45;;
68718;SDS011;55696;52.138;5.444;2022-12-07T04:59:34;5.68;;;1.13;;
68718;SDS011;55696;52.138;5.444;2022-12-07T05:02:07;4.75;;;1.33;;
68718;SDS011;55696;52.138;5.444;2022-12-07T05:04:34;5.97;;;1.43;;
68718;SDS011;55696;52.138;5.444;2022-12-07T05:07:01;9.77;;;1.58;;
68718;SDS011;55696;52.138;5.444;2022-12-07T05:09:27;4.93;;;1.40;;
68718;SDS011;55696;52.138;5.444;2022-12-07T05:11:54;6.60;;;1.30;;
68718;SDS011;55696;52.138;5.444;2022-12-07T05:14:21;7.72;;;1.30;;
68718;SDS011;55696;52.138;5.444;2022-12-07T05:16:48;4.93;;;0.90;;
68718;SDS011;55696;52.138;5.444;2022-12-07T05:19:17;10.35;;;1.35;;
68718;SDS011;55696;52.138;5.444;2022-12-07T05:21:44;5.18;;;1.17;;
68718;SDS011;55696;52.138;5.444;2022-12-07T05:24:13;6.30;;;1.05;;
68718;SDS011;55696;52.138;5.444;2022-12-07T05:26:40;7.15;;;1.58;;
68718;SDS011;55696;52.138;5.444;2022-12-07T05:29:10;5.47;;;1.47;;
68718;SDS011;55696;52.138;5.444;2022-12-07T05:31:40;7.32;;;1.17;;
68718;SDS011;55696;52.138;5.444;2022-12-07T05:34:08;5.07;;;1.48;;
68718;SDS011;55696;52.138;5.444;2022-12-07T05:36:35;9.23;;;1.30;;
68718;SDS011;55696;52.138;5.444;2022-12-07T05:39:02;6.68;;;1.33;;
68718;SDS011;55696;52.138;5.444;2022-12-07T05:41:29;6.87;;;1.20;;
68718;SDS011;55696;52.138;5.444;2022-12-07T05:44:14;6.50;;;1.23;;
68718;SDS011;55696;52.138;5.444;2022-12-07T05:46:41;4.15;;;1.17;;
68718;SDS011;55696;52.138;5.444;2022-12-07T05:49:08;9.02;;;1.35;;
68718;SDS011;55696;52.138;5.444;2022-12-07T05:51:35;8.63;;;1.10;;
68718;SDS011;55696;52.138;5.444;2022-12-07T05:54:01;5.43;;;1.07;;
68718;SDS011;55696;52.138;5.444;2022-12-07T05:56:28;4.78;;;1.08;;
68718;SDS011;55696;52.138;5.444;2022-12-07T05:58:55;5.80;;;1.60;;
68718;SDS011;55696;52.138;5.444;2022-12-07T06:01:41;6.35;;;0.90;;
68718;SDS011;55696;52.138;5.444;2022-12-07T06:04:07;5.45;;;1.20;;
68718;SDS011;55696;52.138;5.444;2022-12-07T06:06:34;3.80;;;0.90;;
68718;SDS011;55696;52.138;5.444;2022-12-07T06:09:01;5.60;;;1.20;;
68718;SDS011;55696;52.138;5.444;2022-12-07T06:11:29;5.25;;;1.55;;
68718;SDS011;55696;52.138;5.444;2022-12-07T06:14:14;5.85;;;1.25;;
68718;SDS011;55696;52.138;5.444;2022-12-07T06:16:41;5.10;;;1.15;;
68718;SDS011;55696;52.138;5.444;2022-12-07T06:19:08;5.63;;;1.10;;
68718;SDS011;55696;52.138;5.444;2022-12-07T06:21:35;6.18;;;1.58;;
68718;SDS011;55696;52.138;5.444;2022-12-07T06:24:01;7.72;;;1.92;;
68718;SDS011;55696;52.138;5.444;2022-12-07T06:26:29;8.65;;;1.60;;
68718;SDS011;55696;52.138;5.444;2022-12-07T06:28:55;7.90;;;1.40;;
68718;SDS011;55696;52.138;5.444;2022-12-07T06:31:22;6.67;;;1.30;;
68718;SDS011;55696;52.138;5.444;2022-12-07T06:33:49;7.47;;;1.30;;
68718;SDS011;55696;52.138;5.444;2022-12-07T06:36:16;9.38;;;1.83;;
68718;SDS011;55696;52.138;5.444;2022-12-07T06:38:49;5.93;;;1.20;;
68718;SDS011;55696;52.138;5.444;2022-12-07T06:41:15;4.35;;;1.23;;
68718;SDS011;55696;52.138;5.444;2022-12-07T06:43:42;8.03;;;1.53;;
68718;SDS011;55696;52.138;5.444;2022-12-07T06:46:09;8.15;;;1.73;;
68718;SDS011;55696;52.138;5.444;2022-12-07T06:48:36;6.68;;;1.50;;
68718;SDS011;55696;52.138;5.444;2022-12-07T06:51:03;6.60;;;1.50;;
68718;SDS011;55696;52.138;5.444;2022-12-07T06:53:30;5.10;;;1.60;;
68718;SDS011;55696;52.138;5.444;2022-12-07T06:55:56;8.30;;;1.27;;
68718;SDS011;55696;52.138;5.444;2022-12-07T06:58:23;11.38;;;1.65;;
68718;SDS011;55696;52.138;5.444;2022-12-07T07:00:50;6.40;;;1.60;;
68718;SDS011;55696;52.138;5.444;2022-12-07T07:03:17;5.93;;;1.30;;
68718;SDS011;55696;52.138;5.444;2022-12-07T07:05:44;7.05;;;1.58;;
68718;SDS011;55696;52.138;5.444;2022-12-07T07:08:11;10.30;;;1.77;;
68718;SDS011;55696;52.138;5.444;2022-12-07T07:10:48;9.35;;;1.75;;
68718;SDS011;55696;52.138;5.444;2022-12-07T07:13:15;10.05;;;1.95;;
68718;SDS011;55696;52.138;5.444;2022-12-07T07:15:41;6.75;;;1.40;;
68718;SDS011;55696;52.138;5.444;2022-12-07T07:18:08;6.90;;;1.58;;
68718;SDS011;55696;52.138;5.444;2022-12-07T07:20:35;9.00;;;2.00;;
68718;SDS011;55696;52.138;5.444;2022-12-07T07:23:02;8.75;;;1.50;;
68718;SDS011;55696;52.138;5.444;2022-12-07T07:25:29;8.10;;;2.20;;
68718;SDS011;55696;52.138;5.444;2022-12-07T07:27:56;7.25;;;1.50;;
68718;SDS011;55696;52.138;5.444;2022-12-07T07:30:23;6.85;;;2.20;;
68718;SDS011;55696;52.138;5.444;2022-12-07T07:32:50;6.17;;;1.57;;
68718;SDS011;55696;52.138;5.444;2022-12-07T07:35:17;10.55;;;2.50;;
68718;SDS011;55696;52.138;5.444;2022-12-07T07:37:44;7.57;;;1.95;;
68718;SDS011;55696;52.138;5.444;2022-12-07T07:40:11;5.50;;;1.55;;
68718;SDS011;55696;52.138;5.444;2022-12-07T07:42:38;4.93;;;1.63;;
68718;SDS011;55696;52.138;5.444;2022-12-07T07:45:05;7.87;;;1.67;;
68718;SDS011;55696;52.138;5.444;2022-12-07T07:47:32;6.53;;;1.50;;
68718;SDS011;55696;52.138;5.444;2022-12-07T07:49:59;7.78;;;1.77;;
68718;SDS011;55696;52.138;5.444;2022-12-07T07:52:26;9.68;;;1.77;;
68718;SDS011;55696;52.138;5.444;2022-12-07T07:54:53;10.15;;;2.08;;
68718;SDS011;55696;52.138;5.444;2022-12-07T07:57:20;7.23;;;1.93;;
68718;SDS011;55696;52.138;5.444;2022-12-07T07:59:46;5.22;;;1.60;;
68718;SDS011;55696;52.138;5.444;2022-12-07T08:02:14;11.23;;;2.05;;
68718;SDS011;55696;52.138;5.444;2022-12-07T08:04:42;7.32;;;1.80;;
68718;SDS011;55696;52.138;5.444;2022-12-07T08:07:10;10.63;;;1.85;;
68718;SDS011;55696;52.138;5.444;2022-12-07T08:09:37;9.77;;;1.90;;
68718;SDS011;55696;52.138;5.444;2022-12-07T08:12:04;7.53;;;1.88;;
68718;SDS011;55696;52.138;5.444;2022-12-07T08:14:32;9.80;;;2.33;;
68718;SDS011;55696;52.138;5.444;2022-12-07T08:16:59;7.63;;;1.77;;
68718;SDS011;55696;52.138;5.444;2022-12-07T08:19:26;7.78;;;2.47;;
68718;SDS011;55696;52.138;5.444;2022-12-07T08:21:53;10.17;;;2.17;;
68718;SDS011;55696;52.138;5.444;2022-12-07T08:24:21;6.43;;;2.17;;
68718;SDS011;55696;52.138;5.444;2022-12-07T08:26:48;15.20;;;2.72;;
68718;SDS011;55696;52.138;5.444;2022-12-07T08:29:16;10.82;;;2.33;;
68718;SDS011;55696;52.138;5.444;2022-12-07T08:31:43;7.60;;;1.90;;
68718;SDS011;55696;52.138;5.444;2022-12-07T08:34:10;13.95;;;1.83;;
68718;SDS011;55696;52.138;5.444;2022-12-07T08:36:37;10.23;;;2.38;;
68718;SDS011;55696;52.138;5.444;2022-12-07T08:39:05;6.22;;;1.73;;
68718;SDS011;55696;52.138;5.444;2022-12-07T08:41:52;6.15;;;1.50;;
68718;SDS011;55696;52.138;5.444;2022-12-07T08:44:18;6.60;;;2.10;;
68718;SDS011;55696;52.138;5.444;2022-12-07T08:46:53;6.90;;;1.80;;
68718;SDS011;55696;52.138;5.444;2022-12-07T08:49:27;6.03;;;1.70;;
68718;SDS011;55696;52.138;5.444;2022-12-07T08:51:59;6.03;;;1.70;;
68718;SDS011;55696;52.138;5.444;2022-12-07T08:54:27;7.47;;;1.63;;
68718;SDS011;55696;52.138;5.444;2022-12-07T08:56:54;4.83;;;1.60;;
68718;SDS011;55696;52.138;5.444;2022-12-07T08:59:25;10.25;;;2.13;;
68718;SDS011;55696;52.138;5.444;2022-12-07T09:01:53;7.85;;;1.67;;
68718;SDS011;55696;52.138;5.444;2022-12-07T09:04:20;8.27;;;1.95;;
68718;SDS011;55696;52.138;5.444;2022-12-07T09:06:48;6.82;;;2.22;;
68718;SDS011;55696;52.138;5.444;2022-12-07T09:09:15;6.37;;;1.63;;
68718;SDS011;55696;52.138;5.444;2022-12-07T09:11:42;6.47;;;1.73;;
68718;SDS011;55696;52.138;5.444;2022-12-07T09:14:11;8.27;;;1.67;;
68718;SDS011;55696;52.138;5.444;2022-12-07T09:16:38;9.52;;;1.80;;
68718;SDS011;55696;52.138;5.444;2022-12-07T09:19:06;7.53;;;2.20;;
68718;SDS011;55696;52.138;5.444;2022-12-07T09:21:34;6.50;;;1.53;;
68718;SDS011;55696;52.138;5.444;2022-12-07T09:24:01;6.90;;;1.40;;
68718;SDS011;55696;52.138;5.444;2022-12-07T09:26:27;6.40;;;1.88;;
68718;SDS011;55696;52.138;5.444;2022-12-07T09:28:54;4.55;;;1.75;;
68718;SDS011;55696;52.138;5.444;2022-12-07T09:31:21;4.25;;;1.33;;
68718;SDS011;55696;52.138;5.444;2022-12-07T09:33:57;7.30;;;1.97;;
68718;SDS011;55696;52.138;5.444;2022-12-07T09:36:26;8.88;;;2.38;;
68718;SDS011;55696;52.138;5.444;2022-12-07T09:38:54;6.15;;;1.42;;
68718;SDS011;55696;52.138;5.444;2022-12-07T09:41:21;2.75;;;1.23;;
68718;SDS011;55696;52.138;5.444;2022-12-07T09:43:50;11.07;;;1.27;;
68718;SDS011;55696;52.138;5.444;2022-12-07T09:46:18;8.97;;;1.43;;
68718;SDS011;55696;52.138;5.444;2022-12-07T09:48:47;4.43;;;1.38;;
68718;SDS011;55696;52.138;5.444;2022-12-07T09:51:17;2.95;;;1.35;;
68718;SDS011;55696;52.138;5.444;2022-12-07T09:53:54;5.50;;;1.25;;
68718;SDS011;55696;52.138;5.444;2022-12-07T09:56:23;5.32;;;1.42;;
68718;SDS011;55696;52.138;5.444;2022-12-07T09:58:55;4.37;;;1.60;;
68718;SDS011;55696;52.138;5.444;2022-12-07T10:01:29;4.78;;;1.60;;
68718;SDS011;55696;52.138;5.444;2022-12-07T10:04:00;5.78;;;1.45;;
68718;SDS011;55696;52.138;5.444;2022-12-07T10:06:48;5.63;;;1.52;;
68718;SDS011;55696;52.138;5.444;2022-12-07T10:09:20;10.05;;;1.95;;
68718;SDS011;55696;52.138;5.444;2022-12-07T10:11:58;6.23;;;1.60;;
68718;SDS011;55696;52.138;5.444;2022-12-07T10:14:31;6.70;;;1.17;;
68718;SDS011;55696;52.138;5.444;2022-12-07T10:17:29;7.18;;;1.40;;
68718;SDS011;55696;52.138;5.444;2022-12-07T10:20:08;7.15;;;1.65;;
68718;SDS011;55696;52.138;5.444;2022-12-07T10:25:35;5.20;;;1.10;;
68718;SDS011;55696;52.138;5.444;2022-12-07T10:30:47;5.32;;;1.50;;
68718;SDS011;55696;52.138;5.444;2022-12-07T10:33:34;6.03;;;1.65;;
68718;SDS011;55696;52.138;5.444;2022-12-07T10:36:16;6.20;;;1.75;;
68718;SDS011;55696;52.138;5.444;2022-12-07T10:38:47;5.80;;;1.53;;
68718;SDS011;55696;52.138;5.444;2022-12-07T10:41:19;6.20;;;1.70;;
68718;SDS011;55696;52.138;5.444;2022-12-07T10:43:47;8.57;;;2.88;;
68718;SDS011;55696;52.138;5.444;2022-12-07T10:46:27;5.97;;;1.85;;
68718;SDS011;55696;52.138;5.444;2022-12-07T10:52:05;3.90;;;1.87;;
68718;SDS011;55696;52.138;5.444;2022-12-07T10:57:56;6.70;;;1.90;;
68718;SDS011;55696;52.138;5.444;2022-12-07T11:00:30;5.30;;;1.92;;
68718;SDS011;55696;52.138;5.444;2022-12-07T11:03:36;8.95;;;1.70;;
68718;SDS011;55696;52.138;5.444;2022-12-07T11:06:10;5.60;;;1.57;;
68718;SDS011;55696;52.138;5.444;2022-12-07T11:11:41;7.93;;;1.80;;
68718;SDS011;55696;52.138;5.444;2022-12-07T11:15:21;4.78;;;1.65;;
68718;SDS011;55696;52.138;5.444;2022-12-07T11:17:26;4.95;;;1.60;;
68718;SDS011;55696;52.138;5.444;2022-12-07T11:25:56;7.55;;;1.15;;
68718;SDS011;55696;52.138;5.444;2022-12-07T11:28:40;5.70;;;1.52;;
68718;SDS011;55696;52.138;5.444;2022-12-07T11:34:15;12.60;;;2.10;;
68718;SDS011;55696;52.138;5.444;2022-12-07T11:37:10;10.82;;;2.03;;
68718;SDS011;55696;52.138;5.444;2022-12-07T11:39:50;4.82;;;1.50;;
68718;SDS011;55696;52.138;5.444;2022-12-07T11:42:27;7.35;;;1.63;;
68718;SDS011;55696;52.138;5.444;2022-12-07T11:45:15;4.28;;;1.20;;
68718;SDS011;55696;52.138;5.444;2022-12-07T11:47:57;9.27;;;1.80;;
68718;SDS011;55696;52.138;5.444;2022-12-07T11:50:33;7.07;;;1.98;;
68718;SDS011;55696;52.138;5.444;2022-12-07T11:55:52;7.20;;;1.90;;
68718;SDS011;55696;52.138;5.444;2022-12-07T12:01:07;9.50;;;1.90;;
68718;SDS011;55696;52.138;5.444;2022-12-07T12:06:36;5.30;;;1.23;;
68718;SDS011;55696;52.138;5.444;2022-12-07T12:09:05;4.50;;;1.27;;
68718;SDS011;55696;52.138;5.444;2022-12-07T12:21:00;8.60;;;1.45;;
68718;SDS011;55696;52.138;5.444;2022-12-07T12:26:20;4.28;;;1.58;;
68718;SDS011;55696;52.138;5.444;2022-12-07T12:28:56;5.00;;;1.30;;
68718;SDS011;55696;52.138;5.444;2022-12-07T12:36:59;5.50;;;1.17;;
68718;SDS011;55696;52.138;5.444;2022-12-07T12:39:26;4.72;;;1.45;;
68718;SDS011;55696;52.138;5.444;2022-12-07T12:41:54;4.23;;;1.50;;
68718;SDS011;55696;52.138;5.444;2022-12-07T12:49:43;5.22;;;1.50;;
68718;SDS011;55696;52.138;5.444;2022-12-07T12:57:36;6.93;;;1.55;;
68718;SDS011;55696;52.138;5.444;2022-12-07T13:00:19;5.10;;;1.30;;
68718;SDS011;55696;52.138;5.444;2022-12-07T13:02:52;4.18;;;1.15;;
68718;SDS011;55696;52.138;5.444;2022-12-07T13:05:21;5.88;;;1.10;;
68718;SDS011;55696;52.138;5.444;2022-12-07T13:15:45;5.75;;;1.30;;
68718;SDS011;55696;52.138;5.444;2022-12-07T13:31:40;2.75;;;1.00;;
68718;SDS011;55696;52.138;5.444;2022-12-07T13:34:32;0.97;;;0.60;;
68718;SDS011;55696;52.138;5.444;2022-12-07T13:40:20;3.15;;;1.10;;
68718;SDS011;55696;52.138;5.444;2022-12-07T13:42:57;2.63;;;0.93;;
68718;SDS011;55696;52.138;5.444;2022-12-07T13:45:29;6.97;;;1.05;;
68718;SDS011;55696;52.138;5.444;2022-12-07T13:51:00;3.08;;;1.08;;
68718;SDS011;55696;52.138;5.444;2022-12-07T13:53:29;3.28;;;1.10;;
68718;SDS011;55696;52.138;5.444;2022-12-07T13:55:57;3.13;;;1.40;;
68718;SDS011;55696;52.138;5.444;2022-12-07T13:58:26;5.70;;;1.75;;
68718;SDS011;55696;52.138;5.444;2022-12-07T14:00:56;6.67;;;2.03;;
68718;SDS011;55696;52.138;5.444;2022-12-07T14:03:33;3.78;;;1.40;;
68718;SDS011;55696;52.138;5.444;2022-12-07T14:06:03;3.88;;;1.45;;
68718;SDS011;55696;52.138;5.444;2022-12-07T14:08:40;6.22;;;1.70;;
68718;SDS011;55696;52.138;5.444;2022-12-07T14:11:09;5.22;;;1.77;;
68718;SDS011;55696;52.138;5.444;2022-12-07T14:14:01;6.77;;;1.87;;
68718;SDS011;55696;52.138;5.444;2022-12-07T14:16:32;6.78;;;1.73;;
68718;SDS011;55696;52.138;5.444;2022-12-07T14:19:03;4.57;;;1.33;;
68718;SDS011;55696;52.138;5.444;2022-12-07T14:21:32;3.30;;;1.40;;
68718;SDS011;55696;52.138;5.444;2022-12-07T14:24:10;5.65;;;1.50;;
68718;SDS011;55696;52.138;5.444;2022-12-07T14:26:45;4.13;;;1.40;;
68718;SDS011;55696;52.138;5.444;2022-12-07T14:31:57;5.70;;;1.33;;
68718;SDS011;55696;52.138;5.444;2022-12-07T14:34:30;5.55;;;1.70;;
68718;SDS011;55696;52.138;5.444;2022-12-07T14:36:57;6.38;;;1.40;;
68718;SDS011;55696;52.138;5.444;2022-12-07T14:39:24;4.60;;;1.40;;
68718;SDS011;55696;52.138;5.444;2022-12-07T14:41:51;8.20;;;2.40;;
68718;SDS011;55696;52.138;5.444;2022-12-07T14:44:21;6.15;;;1.60;;
68718;SDS011;55696;52.138;5.444;2022-12-07T14:46:57;5.70;;;1.73;;
68718;SDS011;55696;52.138;5.444;2022-12-07T14:49:44;5.55;;;1.48;;
68718;SDS011;55696;52.138;5.444;2022-12-07T14:52:13;5.13;;;1.70;;
68718;SDS011;55696;52.138;5.444;2022-12-07T14:55:03;6.60;;;1.73;;
68718;SDS011;55696;52.138;5.444;2022-12-07T14:57:30;8.45;;;1.90;;
68718;SDS011;55696;52.138;5.444;2022-12-07T14:59:57;8.48;;;1.67;;
68718;SDS011;55696;52.138;5.444;2022-12-07T15:02:24;5.80;;;1.55;;
68718;SDS011;55696;52.138;5.444;2022-12-07T15:04:51;9.67;;;1.63;;
68718;SDS011;55696;52.138;5.444;2022-12-07T15:07:21;9.90;;;1.52;;
68718;SDS011;55696;52.138;5.444;2022-12-07T15:09:48;2.28;;;1.00;;
68718;SDS011;55696;52.138;5.444;2022-12-07T15:12:15;5.03;;;1.83;;
68718;SDS011;55696;52.138;5.444;2022-12-07T15:14:42;4.90;;;1.50;;
68718;SDS011;55696;52.138;5.444;2022-12-07T15:17:11;4.00;;;1.57;;
68718;SDS011;55696;52.138;5.444;2022-12-07T15:19:53;3.88;;;1.10;;
68718;SDS011;55696;52.138;5.444;2022-12-07T15:22:20;4.57;;;1.50;;
68718;SDS011;55696;52.138;5.444;2022-12-07T15:24:46;4.57;;;1.02;;
68718;SDS011;55696;52.138;5.444;2022-12-07T15:27:13;5.03;;;1.17;;
68718;SDS011;55696;52.138;5.444;2022-12-07T15:29:40;3.63;;;1.20;;
68718;SDS011;55696;52.138;5.444;2022-12-07T15:32:07;5.20;;;1.48;;
68718;SDS011;55696;52.138;5.444;2022-12-07T15:34:35;8.00;;;2.00;;
68718;SDS011;55696;52.138;5.444;2022-12-07T15:37:06;4.38;;;1.70;;
68718;SDS011;55696;52.138;5.444;2022-12-07T15:39:34;4.65;;;1.67;;
68718;SDS011;55696;52.138;5.444;2022-12-07T15:42:02;4.67;;;1.60;;
68718;SDS011;55696;52.138;5.444;2022-12-07T15:44:29;6.07;;;1.58;;
68718;SDS011;55696;52.138;5.444;2022-12-07T15:47:14;4.50;;;1.50;;
68718;SDS011;55696;52.138;5.444;2022-12-07T15:49:41;6.05;;;1.90;;
68718;SDS011;55696;52.138;5.444;2022-12-07T15:52:08;10.82;;;2.88;;
68718;SDS011;55696;52.138;5.444;2022-12-07T15:54:35;4.97;;;1.87;;
68718;SDS011;55696;52.138;5.444;2022-12-07T15:57:02;7.72;;;1.90;;
68718;SDS011;55696;52.138;5.444;2022-12-07T15:59:29;4.45;;;2.03;;
68718;SDS011;55696;52.138;5.444;2022-12-07T16:01:56;6.68;;;2.10;;
68718;SDS011;55696;52.138;5.444;2022-12-07T16:04:23;4.90;;;2.10;;
68718;SDS011;55696;52.138;5.444;2022-12-07T16:06:50;9.60;;;2.73;;
68718;SDS011;55696;52.138;5.444;2022-12-07T16:09:17;7.00;;;2.40;;
68718;SDS011;55696;52.138;5.444;2022-12-07T16:11:44;5.53;;;2.25;;
68718;SDS011;55696;52.138;5.444;2022-12-07T16:14:11;4.35;;;2.17;;
68718;SDS011;55696;52.138;5.444;2022-12-07T16:16:38;11.88;;;2.97;;
68718;SDS011;55696;52.138;5.444;2022-12-07T16:19:06;9.07;;;2.90;;
68718;SDS011;55696;52.138;5.444;2022-12-07T16:21:34;7.68;;;2.22;;
68718;SDS011;55696;52.138;5.444;2022-12-07T16:24:02;5.20;;;2.28;;
68718;SDS011;55696;52.138;5.444;2022-12-07T16:26:29;5.32;;;2.35;;
68718;SDS011;55696;52.138;5.444;2022-12-07T16:28:56;6.85;;;2.15;;
68718;SDS011;55696;52.138;5.444;2022-12-07T16:31:25;6.33;;;2.60;;
68718;SDS011;55696;52.138;5.444;2022-12-07T16:33:53;7.65;;;2.10;;
68718;SDS011;55696;52.138;5.444;2022-12-07T16:36:22;4.70;;;2.10;;
68718;SDS011;55696;52.138;5.444;2022-12-07T16:39:11;6.85;;;2.55;;
68718;SDS011;55696;52.138;5.444;2022-12-07T16:41:38;6.60;;;2.85;;
68718;SDS011;55696;52.138;5.444;2022-12-07T16:44:05;8.47;;;3.53;;
68718;SDS011;55696;52.138;5.444;2022-12-07T16:46:34;7.80;;;2.58;;
68718;SDS011;55696;52.138;5.444;2022-12-07T16:49:02;10.90;;;3.28;;
68718;SDS011;55696;52.138;5.444;2022-12-07T16:51:29;6.25;;;2.97;;
68718;SDS011;55696;52.138;5.444;2022-12-07T16:53:57;8.30;;;3.25;;
68718;SDS011;55696;52.138;5.444;2022-12-07T16:56:24;7.17;;;2.80;;
68718;SDS011;55696;52.138;5.444;2022-12-07T16:58:52;9.13;;;3.05;;